Time;durP1;ratioP1;P1;durP2;ratioP2;P2;SDS_P1;SDS_P2;PMS_P1;PMS_P2;Temp;Humidity;BMP_temperature;BMP_pressure;BME280_temperature;BME280_humidity;BME280_pressure;Samples;Min_cycle;Max_cycle;Signal;HPM_P1;HPM_P2
2024/01/06 00:01:29;;;;;;;0.30;0.30;;;10.10;99.90;;;;;;5091804;28;20287;-79
2024/01/06 00:03:55;;;;;;;0.30;0.20;;;10.10;99.90;;;;;;5090573;28;20565;-74
2024/01/06 00:06:21;;;;;;;0.30;0.20;;;10.20;99.90;;;;;;5090429;28;20216;-79
2024/01/06 00:08:53;;;;;;;0.30;0.20;;;10.10;99.90;;;;;;5092064;28;20200;-79
2024/01/06 00:11:20;;;;;;;0.30;0.20;;;10.20;99.90;;;;;;5091728;28;20240;-79
2024/01/06 00:13:46;;;;;;;0.30;0.20;;;10.10;99.90;;;;;;5092084;28;20203;-80
2024/01/06 00:16:11;;;;;;;0.30;0.20;;;10.10;99.90;;;;;;5091586;28;20176;-76
2024/01/06 00:18:37;;;;;;;1.03;1.03;;;10.10;99.90;;;;;;5091975;28;20196;-79
2024/01/06 00:21:03;;;;;;;0.30;0.20;;;10.10;99.90;;;;;;5091240;28;20685;-79
2024/01/06 00:23:28;;;;;;;0.30;0.20;;;10.00;99.90;;;;;;5090288;28;20214;-74
2024/01/06 00:25:54;;;;;;;0.30;0.20;;;9.90;99.90;;;;;;5091520;28;20190;-79
2024/01/06 00:28:20;;;;;;;0.30;0.20;;;10.00;99.90;;;;;;5090176;28;20288;-74
2024/01/06 00:30:46;;;;;;;8.23;7.73;;;10.00;99.90;;;;;;5091370;28;20327;-75
2024/01/06 00:33:12;;;;;;;0.30;0.20;;;10.00;99.90;;;;;;5089871;28;20207;-79
2024/01/06 00:35:38;;;;;;;0.30;0.20;;;9.90;99.90;;;;;;5091846;28;20243;-79
2024/01/06 00:38:03;;;;;;;0.30;0.20;;;9.90;99.90;;;;;;5091082;28;20226;-74
2024/01/06 00:40:29;;;;;;;0.30;0.20;;;10.00;99.90;;;;;;5091524;28;20568;-75
2024/01/06 00:42:55;;;;;;;0.30;0.20;;;9.90;99.90;;;;;;5089512;28;20201;-79
2024/01/06 00:45:22;;;;;;;0.30;0.20;;;9.90;99.90;;;;;;5090119;28;20807;-74
2024/01/06 00:47:47;;;;;;;0.30;0.20;;;9.90;99.90;;;;;;5089234;28;20222;-74
2024/01/06 00:50:13;;;;;;;0.30;0.20;;;9.90;99.90;;;;;;5088821;28;20183;-79
2024/01/06 00:52:39;;;;;;;0.30;0.20;;;9.90;99.90;;;;;;5090513;28;20180;-74
2024/01/06 00:55:04;;;;;;;0.30;0.20;;;9.90;99.90;;;;;;5091163;28;20186;-74
2024/01/06 00:57:30;;;;;;;0.37;0.37;;;9.90;99.90;;;;;;5088408;28;20286;-79
2024/01/06 00:59:56;;;;;;;0.30;0.20;;;10.00;99.90;;;;;;5090837;28;20588;-79
2024/01/06 01:02:21;;;;;;;0.30;0.20;;;10.00;99.90;;;;;;5090740;28;20244;-74
2024/01/06 01:04:47;;;;;;;0.30;0.20;;;10.00;99.90;;;;;;5090666;28;20232;-79
2024/01/06 01:07:13;;;;;;;0.30;0.20;;;9.90;99.90;;;;;;5089332;28;20653;-80
2024/01/06 01:09:38;;;;;;;0.60;0.60;;;10.00;99.90;;;;;;5089466;28;20563;-74
2024/01/06 01:12:04;;;;;;;0.70;0.70;;;9.90;99.90;;;;;;5090754;28;20604;-80
2024/01/06 01:14:30;;;;;;;0.30;0.20;;;10.00;99.90;;;;;;5089434;28;20571;-79
2024/01/06 01:16:56;;;;;;;1.13;1.13;;;9.90;99.90;;;;;;5089294;28;20175;-74
2024/01/06 01:19:22;;;;;;;0.30;0.20;;;9.90;99.90;;;;;;5090933;28;20204;-79
2024/01/06 01:21:47;;;;;;;4.73;4.53;;;9.90;99.90;;;;;;5089979;28;20659;-74
2024/01/06 01:24:13;;;;;;;0.30;0.20;;;10.00;99.90;;;;;;5089212;28;20207;-80
2024/01/06 01:26:38;;;;;;;0.30;0.20;;;9.90;99.90;;;;;;5088946;28;20200;-80
2024/01/06 01:29:04;;;;;;;0.30;0.20;;;9.90;99.90;;;;;;5089212;28;20544;-74
2024/01/06 01:31:30;;;;;;;0.30;0.20;;;9.90;99.90;;;;;;5089444;28;20184;-79
2024/01/06 01:33:56;;;;;;;0.30;0.30;;;9.90;99.90;;;;;;5088935;28;20572;-79
2024/01/06 01:36:21;;;;;;;0.30;0.20;;;9.80;99.90;;;;;;5088951;28;20221;-79
2024/01/06 01:38:47;;;;;;;30.60;28.40;;;9.80;99.90;;;;;;5090302;28;20271;-79
2024/01/06 01:41:13;;;;;;;0.30;0.20;;;9.90;99.90;;;;;;5090013;28;20368;-80
2024/01/06 01:43:38;;;;;;;0.93;0.93;;;9.90;99.90;;;;;;5090307;28;20299;-79
2024/01/06 01:46:04;;;;;;;0.30;0.20;;;9.90;99.90;;;;;;5089887;28;20168;-75
2024/01/06 01:48:30;;;;;;;0.30;0.20;;;10.00;99.90;;;;;;5090142;28;20580;-74
2024/01/06 01:50:56;;;;;;;0.30;0.20;;;10.00;99.90;;;;;;5089830;28;20230;-74
2024/01/06 01:53:24;;;;;;;0.53;0.50;;;10.10;99.90;;;;;;5087781;28;20204;-80
2024/01/06 01:55:50;;;;;;;2.88;2.65;;;10.10;99.90;;;;;;5088625;28;20827;-80
2024/01/06 01:58:16;;;;;;;0.30;0.20;;;10.00;99.90;;;;;;5088541;28;20228;-80
2024/01/06 02:00:42;;;;;;;0.30;0.20;;;10.00;99.90;;;;;;5090385;28;20560;-79
2024/01/06 02:03:10;;;;;;;0.30;0.20;;;10.00;99.90;;;;;;5089470;28;20204;-79
2024/01/06 02:05:36;;;;;;;0.30;0.20;;;10.00;99.90;;;;;;5088745;28;21177;-74
2024/01/06 02:08:02;;;;;;;0.30;0.20;;;10.00;99.90;;;;;;5089476;28;20438;-74
2024/01/06 02:10:29;;;;;;;0.30;0.20;;;10.00;99.90;;;;;;5090011;28;20168;-79
2024/01/06 02:12:54;;;;;;;0.30;0.20;;;10.00;99.90;;;;;;5087945;28;20208;-74
2024/01/06 02:15:20;;;;;;;0.30;0.20;;;10.00;99.90;;;;;;5090114;28;20543;-79
2024/01/06 02:17:46;;;;;;;0.30;0.20;;;10.00;99.90;;;;;;5089285;28;20226;-79
2024/01/06 02:20:13;;;;;;;10.80;1.63;;;10.00;99.90;;;;;;5088266;28;20208;-75
2024/01/06 02:22:39;;;;;;;0.30;0.22;;;9.90;99.90;;;;;;5088982;28;20204;-79
2024/01/06 02:25:12;;;;;;;0.40;0.40;;;10.00;99.90;;;;;;5089608;28;20196;-80
2024/01/06 02:27:39;;;;;;;0.75;0.73;;;10.00;99.90;;;;;;5089547;28;20326;-80
2024/01/06 02:30:06;;;;;;;0.30;0.20;;;10.00;99.90;;;;;;5088450;28;20195;-79
2024/01/06 02:32:31;;;;;;;0.30;0.20;;;9.90;99.90;;;;;;5089029;28;20192;-79
2024/01/06 02:34:57;;;;;;;0.97;0.97;;;9.90;99.90;;;;;;5088129;28;20195;-77
2024/01/06 02:37:23;;;;;;;0.30;0.20;;;10.00;99.90;;;;;;5089471;28;20382;-80
2024/01/06 02:39:49;;;;;;;0.30;0.20;;;9.90;99.90;;;;;;5089513;28;20191;-75
2024/01/06 02:42:14;;;;;;;1.60;1.53;;;9.90;99.90;;;;;;5089374;28;20454;-74
2024/01/06 02:44:40;;;;;;;0.30;0.20;;;9.90;99.90;;;;;;5089605;28;20632;-75
2024/01/06 02:47:06;;;;;;;0.50;0.50;;;9.90;99.90;;;;;;5088078;28;20172;-79
2024/01/06 02:49:32;;;;;;;1.27;1.27;;;10.00;99.90;;;;;;5088230;28;20235;-80
2024/01/06 02:51:57;;;;;;;0.30;0.20;;;10.00;99.90;;;;;;5088996;28;20173;-77
2024/01/06 02:54:23;;;;;;;0.30;0.20;;;9.90;99.90;;;;;;5086967;28;20204;-74
2024/01/06 02:56:48;;;;;;;4.20;4.00;;;9.90;99.90;;;;;;5089097;28;20177;-76
2024/01/06 02:59:14;;;;;;;0.63;0.63;;;9.90;99.90;;;;;;5088191;28;20208;-80
2024/01/06 03:01:40;;;;;;;0.30;0.20;;;9.90;99.90;;;;;;5089128;28;20204;-74
2024/01/06 03:04:05;;;;;;;0.30;0.20;;;9.90;99.90;;;;;;5089159;28;20439;-74
2024/01/06 03:06:31;;;;;;;0.60;0.60;;;9.90;99.90;;;;;;5087906;28;20454;-79
2024/01/06 03:08:57;;;;;;;0.40;0.40;;;9.90;99.90;;;;;;5089172;28;20197;-79
2024/01/06 03:11:22;;;;;;;1.23;1.17;;;9.90;99.90;;;;;;5087898;28;20181;-80
2024/01/06 03:13:48;;;;;;;0.40;0.30;;;9.90;99.90;;;;;;5089286;28;20223;-80
2024/01/06 03:16:14;;;;;;;1.37;1.27;;;9.90;99.90;;;;;;5089127;28;20538;-80
2024/01/06 03:18:39;;;;;;;4.53;4.40;;;9.90;99.90;;;;;;5089067;28;20603;-74
2024/01/06 03:21:05;;;;;;;0.30;0.20;;;9.90;99.90;;;;;;5091643;28;20206;-76
2024/01/06 03:23:31;;;;;;;0.30;0.20;;;10.00;99.90;;;;;;5091440;28;20700;-74
2024/01/06 03:25:57;;;;;;;0.30;0.20;;;10.00;99.90;;;;;;5092868;28;20789;-75
2024/01/06 03:28:22;;;;;;;0.40;0.30;;;10.00;99.90;;;;;;5091367;28;20258;-74
2024/01/06 03:30:48;;;;;;;2.70;2.50;;;10.00;99.90;;;;;;5092605;28;20181;-75
2024/01/06 03:33:14;;;;;;;0.70;0.70;;;10.00;99.90;;;;;;5090227;28;20287;-80
2024/01/06 03:35:39;;;;;;;0.30;0.20;;;9.90;99.90;;;;;;5091317;28;20176;-78
2024/01/06 03:38:05;;;;;;;0.30;0.20;;;9.90;99.90;;;;;;5090923;28;20265;-74
2024/01/06 03:40:30;;;;;;;0.30;0.20;;;9.90;99.90;;;;;;5091045;28;20216;-74
2024/01/06 03:42:56;;;;;;;0.30;0.20;;;9.90;99.90;;;;;;5092171;28;20226;-74
2024/01/06 03:45:22;;;;;;;0.40;0.40;;;10.00;99.90;;;;;;5091384;28;20208;-74
2024/01/06 03:47:48;;;;;;;0.60;0.60;;;10.00;99.90;;;;;;5090694;28;20291;-79
2024/01/06 03:50:13;;;;;;;0.40;0.40;;;10.10;99.90;;;;;;5092198;28;20191;-79
2024/01/06 03:52:39;;;;;;;0.30;0.20;;;10.10;99.90;;;;;;5090316;28;20638;-81
2024/01/06 03:55:06;;;;;;;0.30;0.30;;;10.10;99.90;;;;;;5092682;28;20171;-75
2024/01/06 03:57:31;;;;;;;0.30;0.20;;;10.10;99.90;;;;;;5089329;28;20177;-75
2024/01/06 03:59:57;;;;;;;2.20;2.10;;;10.10;99.90;;;;;;5090637;28;20207;-74
2024/01/06 04:02:23;;;;;;;0.30;0.20;;;10.10;99.90;;;;;;5091779;28;20696;-74
2024/01/06 04:04:49;;;;;;;0.30;0.20;;;10.20;99.90;;;;;;5091849;28;20969;-75
2024/01/06 04:07:15;;;;;;;0.93;0.93;;;10.10;99.90;;;;;;5092081;28;20168;-74
2024/01/06 04:09:43;;;;;;;0.30;0.30;;;10.10;99.90;;;;;;5090484;28;20200;-74
2024/01/06 04:12:09;;;;;;;0.30;0.20;;;10.20;99.90;;;;;;5091979;28;20519;-79
2024/01/06 04:14:34;;;;;;;0.30;0.20;;;10.20;99.90;;;;;;5090271;28;20203;-80
2024/01/06 04:17:01;;;;;;;0.30;0.20;;;10.30;99.90;;;;;;5091617;28;20497;-79
2024/01/06 04:19:26;;;;;;;0.30;0.20;;;10.30;99.90;;;;;;5090296;28;20204;-79
2024/01/06 04:21:52;;;;;;;0.30;0.20;;;10.30;99.90;;;;;;5091181;28;20203;-78
2024/01/06 04:24:18;;;;;;;0.30;0.20;;;10.40;99.90;;;;;;5090444;28;20205;-74
2024/01/06 04:26:44;;;;;;;0.40;0.30;;;10.40;99.90;;;;;;5089976;28;20169;-79
2024/01/06 04:29:11;;;;;;;10.35;4.72;;;10.40;99.90;;;;;;5090187;28;20295;-75
2024/01/06 04:31:37;;;;;;;0.30;0.20;;;10.40;99.90;;;;;;5091193;28;20168;-74
2024/01/06 04:34:03;;;;;;;0.60;0.60;;;10.40;99.90;;;;;;5091167;28;20535;-74
2024/01/06 04:36:29;;;;;;;0.30;0.20;;;10.40;99.90;;;;;;5091439;28;20230;-79
2024/01/06 04:38:54;;;;;;;0.30;0.20;;;10.50;99.90;;;;;;5091097;28;20462;-74
2024/01/06 04:41:21;;;;;;;0.30;0.30;;;10.50;99.90;;;;;;5091652;28;20449;-80
2024/01/06 04:43:47;;;;;;;0.30;0.20;;;10.50;99.90;;;;;;5089946;28;20485;-79
2024/01/06 04:46:12;;;;;;;0.43;0.43;;;10.60;99.90;;;;;;5091087;28;20192;-74
2024/01/06 04:48:40;;;;;;;0.30;0.20;;;10.60;99.90;;;;;;5089557;28;20811;-74
2024/01/06 04:51:09;;;;;;;0.30;0.20;;;10.60;99.90;;;;;;5090924;28;20168;-79
2024/01/06 04:53:36;;;;;;;0.30;0.20;;;10.60;99.90;;;;;;5090040;28;20550;-79
2024/01/06 04:56:01;;;;;;;0.30;0.20;;;10.70;99.90;;;;;;5091323;28;20195;-80
2024/01/06 04:58:27;;;;;;;0.30;0.20;;;10.70;99.90;;;;;;5088733;28;20681;-74
2024/01/06 05:00:53;;;;;;;0.47;0.47;;;10.80;99.90;;;;;;5089524;28;20461;-79
2024/01/06 05:03:18;;;;;;;0.30;0.20;;;10.80;99.90;;;;;;5089452;28;20212;-74
2024/01/06 05:05:44;;;;;;;0.30;0.20;;;10.90;99.90;;;;;;5090743;28;20281;-77
2024/01/06 05:08:10;;;;;;;0.37;0.20;;;11.00;99.90;;;;;;5090666;28;20293;-75
2024/01/06 05:10:35;;;;;;;0.30;0.30;;;11.00;99.90;;;;;;5091047;28;20405;-76
2024/01/06 05:13:01;;;;;;;1.87;1.80;;;11.10;99.90;;;;;;5090344;28;20375;-80
2024/01/06 05:15:27;;;;;;;0.30;0.27;;;11.20;99.90;;;;;;5090867;28;20180;-79
2024/01/06 05:17:53;;;;;;;0.30;0.20;;;11.20;99.90;;;;;;5089784;28;20232;-80
2024/01/06 05:20:18;;;;;;;0.30;0.30;;;11.20;99.90;;;;;;5089326;28;20247;-74
2024/01/06 05:22:44;;;;;;;0.30;0.20;;;11.30;99.90;;;;;;5090082;28;20208;-80
2024/01/06 05:25:09;;;;;;;0.30;0.20;;;11.30;99.90;;;;;;5090641;28;20200;-80
2024/01/06 05:27:35;;;;;;;0.30;0.20;;;11.30;99.90;;;;;;5090112;28;20184;-80
2024/01/06 05:30:02;;;;;;;1.20;1.17;;;11.30;99.90;;;;;;5090755;28;20287;-74
2024/01/06 05:32:27;;;;;;;0.30;0.20;;;11.30;99.90;;;;;;5089851;28;20634;-74
2024/01/06 05:34:53;;;;;;;0.30;0.20;;;11.30;99.90;;;;;;5089543;28;20704;-78
2024/01/06 05:37:18;;;;;;;0.40;0.20;;;11.30;99.90;;;;;;5090339;28;20610;-74
2024/01/06 05:39:44;;;;;;;0.30;0.20;;;11.30;99.90;;;;;;5088629;28;20228;-74
2024/01/06 05:42:15;;;;;;;0.30;0.30;;;11.30;99.90;;;;;;5089527;28;20540;-74
2024/01/06 05:44:41;;;;;;;0.30;0.20;;;11.30;99.90;;;;;;5089982;28;20207;-78
2024/01/06 05:47:08;;;;;;;0.30;0.20;;;11.30;99.90;;;;;;5088605;28;20725;-74
2024/01/06 05:49:34;;;;;;;0.30;0.20;;;11.30;99.90;;;;;;5088729;28;20303;-80
2024/01/06 05:52:00;;;;;;;0.50;0.50;;;11.30;99.90;;;;;;5089786;28;20618;-74
2024/01/06 05:54:25;;;;;;;3.47;3.37;;;11.20;99.90;;;;;;5090336;28;20440;-77
2024/01/06 05:56:51;;;;;;;0.30;0.20;;;11.20;99.90;;;;;;5088492;28;20405;-76
2024/01/06 05:59:17;;;;;;;0.30;0.27;;;11.20;99.90;;;;;;5087643;28;20562;-74
2024/01/06 06:01:43;;;;;;;0.50;0.50;;;11.20;99.90;;;;;;5088243;28;20219;-74
2024/01/06 06:04:11;;;;;;;0.30;0.20;;;11.20;99.90;;;;;;5089898;28;20844;-74
2024/01/06 06:06:37;;;;;;;0.30;0.20;;;11.20;99.90;;;;;;5087997;28;20228;-79
2024/01/06 06:09:06;;;;;;;0.30;0.20;;;11.20;99.90;;;;;;5088563;28;20657;-73
2024/01/06 06:11:33;;;;;;;0.30;0.20;;;11.20;99.90;;;;;;5088159;28;20179;-73
2024/01/06 06:13:58;;;;;;;0.50;0.50;;;11.20;99.90;;;;;;5088384;28;20211;-79
2024/01/06 06:16:24;;;;;;;0.30;0.20;;;11.20;99.90;;;;;;5089466;28;20168;-75
2024/01/06 06:18:50;;;;;;;0.30;0.20;;;11.20;99.90;;;;;;5088291;28;20629;-80
2024/01/06 06:21:16;;;;;;;0.30;0.20;;;11.20;99.90;;;;;;5089522;28;20283;-78
2024/01/06 06:23:41;;;;;;;4.20;4.07;;;11.20;99.90;;;;;;5088193;28;20204;-74
2024/01/06 06:26:07;;;;;;;0.73;0.73;;;11.20;99.90;;;;;;5089489;28;20168;-73
2024/01/06 06:28:34;;;;;;;0.30;0.20;;;11.20;99.90;;;;;;5089687;28;20851;-80
2024/01/06 06:31:01;;;;;;;0.30;0.20;;;11.20;99.90;;;;;;5087959;28;20180;-74
2024/01/06 06:33:27;;;;;;;0.40;0.40;;;11.20;99.90;;;;;;5089039;28;20568;-80
2024/01/06 06:35:52;;;;;;;0.30;0.20;;;11.20;99.90;;;;;;5089788;28;20175;-79
2024/01/06 06:38:18;;;;;;;0.30;0.20;;;11.20;99.90;;;;;;5089534;28;20606;-74
2024/01/06 06:40:43;;;;;;;0.30;0.30;;;11.20;99.90;;;;;;5089451;28;20208;-81
2024/01/06 06:43:09;;;;;;;0.30;0.20;;;11.20;99.90;;;;;;5089725;28;20200;-78
2024/01/06 06:45:35;;;;;;;0.30;0.20;;;11.20;99.90;;;;;;5088306;28;20176;-74
2024/01/06 06:48:00;;;;;;;0.30;0.30;;;11.20;99.90;;;;;;5087500;28;20270;-74
2024/01/06 06:50:26;;;;;;;0.30;0.20;;;11.20;99.90;;;;;;5089480;28;20210;-74
2024/01/06 06:52:52;;;;;;;0.30;0.20;;;11.20;99.90;;;;;;5088918;28;20548;-74
2024/01/06 06:55:19;;;;;;;0.30;0.20;;;11.20;99.90;;;;;;5091443;28;20198;-79
2024/01/06 06:57:45;;;;;;;0.30;0.20;;;11.20;99.90;;;;;;5092921;28;20220;-74
2024/01/06 07:00:11;;;;;;;0.30;0.20;;;11.20;99.90;;;;;;5092234;28;20244;-75
2024/01/06 07:02:37;;;;;;;0.30;0.20;;;11.20;99.90;;;;;;5093054;28;20306;-74
2024/01/06 07:05:06;;;;;;;0.30;0.20;;;11.10;99.90;;;;;;5091944;28;20224;-79
2024/01/06 07:07:35;;;;;;;0.30;0.20;;;11.10;99.90;;;;;;5092618;28;20168;-79
2024/01/06 07:10:05;;;;;;;0.30;0.20;;;11.10;99.90;;;;;;5091257;28;20195;-74
2024/01/06 07:12:31;;;;;;;0.30;0.20;;;11.10;99.90;;;;;;5091461;28;20276;-74
2024/01/06 07:14:58;;;;;;;0.30;0.20;;;11.10;99.90;;;;;;5092774;28;20256;-74
2024/01/06 07:17:24;;;;;;;0.30;0.20;;;11.20;99.90;;;;;;5091151;28;20181;-80
2024/01/06 07:19:50;;;;;;;0.95;0.95;;;11.20;99.90;;;;;;5091334;28;20180;-74
2024/01/06 07:22:19;;;;;;;0.60;0.60;;;11.20;99.90;;;;;;5091804;28;20675;-76
2024/01/06 07:24:45;;;;;;;0.30;0.20;;;11.10;99.90;;;;;;5089550;28;20427;-79
2024/01/06 07:27:11;;;;;;;0.30;0.20;;;11.20;99.90;;;;;;5087156;28;20762;-79
2024/01/06 07:29:37;;;;;;;4.10;3.73;;;11.20;99.90;;;;;;5087429;28;20439;-73
2024/01/06 07:32:03;;;;;;;0.30;0.20;;;11.10;99.90;;;;;;5088149;28;20425;-80
2024/01/06 07:34:29;;;;;;;0.30;0.20;;;11.10;99.90;;;;;;5088888;28;20309;-79
2024/01/06 07:36:56;;;;;;;0.30;0.20;;;11.20;99.90;;;;;;5087498;28;20420;-74
2024/01/06 07:39:21;;;;;;;0.30;0.20;;;11.20;99.90;;;;;;5091501;28;20399;-79
2024/01/06 07:41:47;;;;;;;0.30;0.20;;;11.20;99.90;;;;;;5088664;28;20257;-79
2024/01/06 07:44:13;;;;;;;0.30;0.20;;;11.20;99.90;;;;;;5087886;28;20487;-74
2024/01/06 07:46:40;;;;;;;0.30;0.20;;;11.20;99.90;;;;;;5087225;28;20182;-74
2024/01/06 07:49:06;;;;;;;0.85;0.85;;;11.20;99.90;;;;;;5087492;28;20204;-74
2024/01/06 07:51:32;;;;;;;0.30;0.20;;;11.20;99.90;;;;;;5088481;28;20206;-73
2024/01/06 07:53:58;;;;;;;0.30;0.20;;;11.20;99.90;;;;;;5089020;28;20532;-79
2024/01/06 07:56:24;;;;;;;0.30;0.20;;;11.20;99.90;;;;;;5087312;28;20180;-79
2024/01/06 07:58:49;;;;;;;0.30;0.20;;;11.20;99.90;;;;;;5091474;28;20828;-79
2024/01/06 08:01:15;;;;;;;0.30;0.20;;;11.20;99.90;;;;;;5092179;28;20261;-79
2024/01/06 08:03:41;;;;;;;0.30;0.20;;;11.20;99.90;;;;;;5090959;28;20691;-79
2024/01/06 08:06:06;;;;;;;0.30;0.20;;;11.20;99.90;;;;;;5090115;28;20223;-79
2024/01/06 08:08:32;;;;;;;0.30;0.20;;;11.30;99.90;;;;;;5092118;28;20511;-74
2024/01/06 08:10:58;;;;;;;0.30;0.20;;;11.30;99.90;;;;;;5091765;28;20271;-78
2024/01/06 08:13:24;;;;;;;0.32;0.32;;;11.30;99.90;;;;;;5092215;28;20196;-79
2024/01/06 08:15:50;;;;;;;0.30;0.20;;;11.30;99.90;;;;;;5091610;28;20165;-78
2024/01/06 08:18:16;;;;;;;0.30;0.30;;;11.30;99.90;;;;;;5090245;28;20655;-79
2024/01/06 08:20:41;;;;;;;0.30;0.20;;;11.30;99.90;;;;;;5090961;28;20208;-76
2024/01/06 08:23:08;;;;;;;0.30;0.20;;;11.40;99.90;;;;;;5089303;28;20235;-74
2024/01/06 08:25:33;;;;;;;0.30;0.20;;;11.40;99.90;;;;;;5088550;28;20449;-74
2024/01/06 08:27:59;;;;;;;0.30;0.20;;;11.40;99.90;;;;;;5088135;28;20712;-74
2024/01/06 08:30:25;;;;;;;0.30;0.20;;;11.50;99.90;;;;;;5090510;28;20657;-74
2024/01/06 08:32:52;;;;;;;0.30;0.20;;;11.50;99.90;;;;;;5089909;28;20444;-74
2024/01/06 08:35:19;;;;;;;0.30;0.20;;;11.50;99.90;;;;;;5089171;28;20235;-80
2024/01/06 08:37:45;;;;;;;0.60;0.57;;;11.60;99.90;;;;;;5089159;28;20207;-74
2024/01/06 08:40:11;;;;;;;2.20;2.10;;;11.60;99.90;;;;;;5089500;28;20541;-74
2024/01/06 08:42:37;;;;;;;0.30;0.20;;;11.60;99.90;;;;;;5089286;28;20903;-80
2024/01/06 08:45:04;;;;;;;0.30;0.30;;;11.70;99.90;;;;;;5087899;28;20260;-79
2024/01/06 08:47:30;;;;;;;0.30;0.20;;;11.70;99.90;;;;;;5089216;28;20546;-79
2024/01/06 08:49:56;;;;;;;0.30;0.20;;;11.80;99.90;;;;;;5089449;28;20175;-75
2024/01/06 08:52:21;;;;;;;0.30;0.20;;;11.90;99.90;;;;;;5087732;28;20412;-74
2024/01/06 08:54:49;;;;;;;0.30;0.20;;;11.90;99.90;;;;;;5087755;28;20192;-74
2024/01/06 08:57:15;;;;;;;0.30;0.20;;;12.00;99.90;;;;;;5089530;28;20681;-77
2024/01/06 08:59:40;;;;;;;0.30;0.20;;;12.00;99.90;;;;;;5087771;28;20437;-74
2024/01/06 09:02:06;;;;;;;0.30;0.20;;;12.10;99.90;;;;;;5089310;28;20449;-78
2024/01/06 09:04:32;;;;;;;0.30;0.20;;;12.10;99.90;;;;;;5087357;28;20201;-80
2024/01/06 09:06:57;;;;;;;0.30;0.20;;;12.20;99.90;;;;;;5088870;28;20169;-74
2024/01/06 09:09:24;;;;;;;0.40;0.40;;;12.30;99.90;;;;;;5090702;28;20254;-79
2024/01/06 09:11:49;;;;;;;2.30;2.20;;;12.30;99.90;;;;;;5089092;28;20809;-74
2024/01/06 09:14:18;;;;;;;0.30;0.30;;;12.40;99.90;;;;;;5089409;28;20498;-80
2024/01/06 09:16:45;;;;;;;0.30;0.20;;;12.50;99.90;;;;;;5090174;28;20208;-74
2024/01/06 09:19:10;;;;;;;0.30;0.30;;;12.50;99.90;;;;;;5090287;28;20449;-74
2024/01/06 09:21:36;;;;;;;0.53;0.53;;;12.70;99.90;;;;;;5089094;28;20262;-74
2024/01/06 09:24:06;;;;;;;1.70;1.60;;;12.80;99.90;;;;;;5089210;28;20200;-79
2024/01/06 09:26:33;;;;;;;0.30;0.20;;;13.10;99.90;;;;;;5088901;28;20277;-74
2024/01/06 09:29:00;;;;;;;0.50;0.50;;;13.20;99.90;;;;;;5089120;28;20479;-74
2024/01/06 09:31:26;;;;;;;2.10;2.00;;;13.40;99.90;;;;;;5090520;28;20413;-74
2024/01/06 09:33:52;;;;;;;0.30;0.20;;;13.40;99.90;;;;;;5088915;28;20498;-75
2024/01/06 09:36:18;;;;;;;0.30;0.20;;;13.60;99.90;;;;;;5089529;28;20444;-78
2024/01/06 09:38:44;;;;;;;2.10;2.00;;;13.70;99.90;;;;;;5090480;28;20275;-80
2024/01/06 09:41:10;;;;;;;0.30;0.20;;;13.70;99.90;;;;;;5090172;28;20974;-78
2024/01/06 09:43:37;;;;;;;0.30;0.30;;;13.80;99.90;;;;;;5089919;28;20219;-80
2024/01/06 09:46:26;;;;;;;0.50;0.50;;;13.70;99.90;;;;;;5089066;28;20425;-74
2024/01/06 09:48:54;;;;;;;0.30;0.20;;;13.70;99.90;;;;;;5090116;28;20429;-80
2024/01/06 09:51:20;;;;;;;2.20;2.10;;;13.70;99.90;;;;;;5088701;28;20427;-74
2024/01/06 09:54:07;;;;;;;2.50;2.40;;;13.80;99.90;;;;;;5090117;28;20436;-74
2024/01/06 09:56:34;;;;;;;0.30;0.20;;;13.80;99.90;;;;;;5089815;28;20537;-80
2024/01/06 09:59:00;;;;;;;0.30;0.20;;;13.90;99.90;;;;;;5088671;28;20457;-74
2024/01/06 10:01:26;;;;;;;0.30;0.20;;;14.00;99.90;;;;;;5089928;28;20605;-75
2024/01/06 10:03:52;;;;;;;0.30;0.20;;;14.10;99.90;;;;;;5088430;28;20551;-80
2024/01/06 10:06:20;;;;;;;0.30;0.20;;;14.20;99.90;;;;;;5088583;28;20232;-79
2024/01/06 10:08:50;;;;;;;0.40;0.40;;;14.30;99.90;;;;;;5088582;28;20812;-74
2024/01/06 10:11:16;;;;;;;0.30;0.20;;;14.40;99.90;;;;;;5088763;28;20772;-80
2024/01/06 10:13:42;;;;;;;0.70;0.70;;;14.50;99.90;;;;;;5088383;28;20453;-79
2024/01/06 10:16:08;;;;;;;0.30;0.20;;;14.50;99.90;;;;;;5089885;28;20257;-74
2024/01/06 10:18:35;;;;;;;0.30;0.20;;;14.50;99.90;;;;;;5088313;28;20203;-74
2024/01/06 10:21:05;;;;;;;0.30;0.20;;;14.50;99.90;;;;;;5088254;28;20348;-74
2024/01/06 10:23:32;;;;;;;1.03;1.03;;;14.50;99.90;;;;;;5089580;28;20441;-79
2024/01/06 10:25:57;;;;;;;0.30;0.20;;;14.40;99.90;;;;;;5088153;28;20780;-80
2024/01/06 10:28:23;;;;;;;0.30;0.20;;;14.40;99.90;;;;;;5090423;28;20425;-80
2024/01/06 10:30:53;;;;;;;0.30;0.20;;;14.40;99.90;;;;;;5092582;28;20181;-75
2024/01/06 10:33:20;;;;;;;0.30;0.20;;;14.40;99.90;;;;;;5093709;28;20459;-80
2024/01/06 10:35:47;;;;;;;0.30;0.30;;;14.40;99.90;;;;;;5092093;28;20948;-74
2024/01/06 10:38:15;;;;;;;0.30;0.20;;;14.30;99.90;;;;;;5093754;28;20842;-74
2024/01/06 10:40:41;;;;;;;0.30;0.20;;;14.30;99.90;;;;;;5093586;28;21072;-75
2024/01/06 10:43:09;;;;;;;0.40;0.40;;;14.40;99.90;;;;;;5091909;28;20799;-75
2024/01/06 10:45:36;;;;;;;0.30;0.20;;;14.40;99.90;;;;;;5093903;28;20413;-75
2024/01/06 10:48:05;;;;;;;0.30;0.20;;;14.40;99.90;;;;;;5091760;28;20716;-74
2024/01/06 10:50:32;;;;;;;0.30;0.20;;;14.40;99.90;;;;;;5093272;28;20504;-74
2024/01/06 10:52:58;;;;;;;0.30;0.20;;;14.30;99.90;;;;;;5093225;28;20933;-74
2024/01/06 10:55:26;;;;;;;0.30;0.20;;;14.30;99.90;;;;;;5093619;28;20898;-74
2024/01/06 10:57:54;;;;;;;0.40;0.40;;;14.20;99.90;;;;;;5092802;28;20448;-80
2024/01/06 11:00:20;;;;;;;0.30;0.20;;;14.10;99.90;;;;;;5093400;28;20987;-75
2024/01/06 11:02:47;;;;;;;0.30;0.20;;;14.20;99.90;;;;;;5091566;28;20508;-79
2024/01/06 11:05:14;;;;;;;0.30;0.20;;;14.20;99.90;;;;;;5082764;28;20285;-78
2024/01/06 11:07:41;;;;;;;0.30;0.20;;;14.20;99.90;;;;;;5072282;28;20429;-74
2024/01/06 11:10:18;;;;;;;2.60;2.50;;;14.20;99.90;;;;;;5072192;28;20899;-74
2024/01/06 11:12:45;;;;;;;0.30;0.20;;;14.30;99.90;;;;;;5070541;28;20491;-79
2024/01/06 11:15:41;;;;;;;0.40;0.23;;;14.30;99.90;;;;;;5072919;28;20934;-74
2024/01/06 11:18:07;;;;;;;0.30;0.20;;;14.30;99.90;;;;;;5071066;28;20958;-74
2024/01/06 11:20:33;;;;;;;0.30;0.20;;;14.30;99.90;;;;;;5072517;28;20465;-77
2024/01/06 11:23:20;;;;;;;0.30;0.27;;;14.30;99.90;;;;;;5070952;28;20457;-74
2024/01/06 11:25:46;;;;;;;0.93;0.93;;;14.40;99.90;;;;;;5071375;28;20512;-79
2024/01/06 11:28:12;;;;;;;0.40;0.40;;;14.50;99.90;;;;;;5072531;28;20976;-76
2024/01/06 11:30:39;;;;;;;0.30;0.20;;;14.50;99.90;;;;;;5071504;28;20268;-77
2024/01/06 11:33:05;;;;;;;0.30;0.20;;;14.60;99.90;;;;;;5070936;28;20441;-79
2024/01/06 11:35:31;;;;;;;0.30;0.20;;;14.70;99.90;;;;;;5071062;28;20414;-78
2024/01/06 11:38:00;;;;;;;0.30;0.20;;;14.80;99.90;;;;;;5071603;28;20632;-74
2024/01/06 11:40:32;;;;;;;1.37;1.37;;;14.80;99.90;;;;;;5070225;28;20474;-74
2024/01/06 11:43:08;;;;;;;0.30;0.30;;;14.90;99.90;;;;;;5070516;28;20452;-74
2024/01/06 11:45:35;;;;;;;0.30;0.20;;;14.90;99.90;;;;;;5072507;28;20417;-79
2024/01/06 11:48:14;;;;;;;0.30;0.20;;;14.90;99.90;;;;;;5071960;28;20446;-79
2024/01/06 11:50:40;;;;;;;0.30;0.20;;;14.90;99.90;;;;;;5071832;28;20405;-79
2024/01/06 11:53:09;;;;;;;0.50;0.50;;;14.90;99.90;;;;;;5072341;28;20438;-75
2024/01/06 11:55:35;;;;;;;0.30;0.20;;;14.80;99.90;;;;;;5072465;28;20933;-74
2024/01/06 11:58:05;;;;;;;0.83;0.83;;;14.80;99.90;;;;;;5071471;28;20441;-75
2024/01/06 12:00:32;;;;;;;0.30;0.20;;;14.80;99.90;;;;;;5070701;28;20489;-74
2024/01/06 12:02:59;;;;;;;0.30;0.30;;;14.80;99.90;;;;;;5071725;28;20433;-80
2024/01/06 12:05:26;;;;;;;0.30;0.20;;;14.80;99.90;;;;;;5071759;28;20456;-74
2024/01/06 12:07:56;;;;;;;0.30;0.30;;;14.70;99.90;;;;;;5071191;28;20563;-79
2024/01/06 12:10:23;;;;;;;0.30;0.20;;;14.70;99.90;;;;;;5071609;28;20459;-81
2024/01/06 12:13:03;;;;;;;0.30;0.20;;;14.60;99.90;;;;;;5069776;28;20437;-76
2024/01/06 12:15:32;;;;;;;0.30;0.20;;;14.50;99.90;;;;;;5070809;28;20418;-76
2024/01/06 12:17:58;;;;;;;1.63;1.53;;;14.40;99.90;;;;;;5070030;28;20796;-79
2024/01/06 12:20:25;;;;;;;1.83;1.73;;;14.30;99.90;;;;;;5070067;28;20469;-79
2024/01/06 12:22:55;;;;;;;0.40;0.30;;;14.30;99.90;;;;;;5069638;28;20927;-79
2024/01/06 12:25:25;;;;;;;0.30;0.20;;;14.30;99.90;;;;;;5070417;28;20966;-74
2024/01/06 12:27:52;;;;;;;0.30;0.30;;;14.30;99.90;;;;;;5069561;28;20536;-75
2024/01/06 12:30:19;;;;;;;0.30;0.20;;;14.20;99.90;;;;;;5070440;28;20418;-75
2024/01/06 12:32:47;;;;;;;0.30;0.20;;;14.20;99.90;;;;;;5069691;28;20606;-79
2024/01/06 12:35:14;;;;;;;0.30;0.20;;;14.20;99.90;;;;;;5071199;28;20455;-79
2024/01/06 12:37:41;;;;;;;1.07;0.97;;;14.10;99.90;;;;;;5068892;28;20766;-78
2024/01/06 12:40:09;;;;;;;0.30;0.30;;;14.10;99.90;;;;;;5069768;28;20410;-74
2024/01/06 12:42:36;;;;;;;0.30;0.20;;;14.10;99.90;;;;;;5069713;28;20846;-75
2024/01/06 12:45:02;;;;;;;1.50;1.40;;;14.10;99.90;;;;;;5071087;28;20911;-74